sensor_id;sensor_type;location;lat;lon;timestamp;P1;durP1;ratioP1;P2;durP2;ratioP2
12958;SDS011;6544;51.666;6.634;2022-09-24T00:00:42;25.48;;;21.10;;
12958;SDS011;6544;51.666;6.634;2022-09-24T00:03:11;25.63;;;22.85;;
12958;SDS011;6544;51.666;6.634;2022-09-24T00:05:38;24.58;;;21.58;;
12958;SDS011;6544;51.666;6.634;2022-09-24T00:08:06;25.88;;;22.23;;
12958;SDS011;6544;51.666;6.634;2022-09-24T00:10:35;26.13;;;21.58;;
12958;SDS011;6544;51.666;6.634;2022-09-24T00:13:04;24.88;;;20.63;;
12958;SDS011;6544;51.666;6.634;2022-09-24T00:15:34;22.70;;;20.15;;
12958;SDS011;6544;51.666;6.634;2022-09-24T00:18:01;22.35;;;19.48;;
12958;SDS011;6544;51.666;6.634;2022-09-24T00:20:30;21.40;;;18.95;;
12958;SDS011;6544;51.666;6.634;2022-09-24T00:22:57;20.98;;;18.52;;
12958;SDS011;6544;51.666;6.634;2022-09-24T00:25:24;21.55;;;19.25;;
12958;SDS011;6544;51.666;6.634;2022-09-24T00:28:08;21.02;;;18.77;;
12958;SDS011;6544;51.666;6.634;2022-09-24T00:30:36;24.02;;;19.80;;
12958;SDS011;6544;51.666;6.634;2022-09-24T00:33:03;24.65;;;20.98;;
12958;SDS011;6544;51.666;6.634;2022-09-24T00:35:32;23.95;;;21.33;;
12958;SDS011;6544;51.666;6.634;2022-09-24T00:37:59;21.58;;;19.25;;
12958;SDS011;6544;51.666;6.634;2022-09-24T00:40:26;21.13;;;18.98;;
12958;SDS011;6544;51.666;6.634;2022-09-24T00:42:53;21.35;;;18.35;;
12958;SDS011;6544;51.666;6.634;2022-09-24T00:45:20;21.23;;;17.70;;
12958;SDS011;6544;51.666;6.634;2022-09-24T00:47:48;19.38;;;17.33;;
12958;SDS011;6544;51.666;6.634;2022-09-24T00:50:17;18.92;;;17.00;;
12958;SDS011;6544;51.666;6.634;2022-09-24T00:52:50;19.55;;;17.35;;
12958;SDS011;6544;51.666;6.634;2022-09-24T00:55:21;19.48;;;17.50;;
12958;SDS011;6544;51.666;6.634;2022-09-24T00:57:50;19.88;;;17.88;;
12958;SDS011;6544;51.666;6.634;2022-09-24T01:00:20;20.27;;;16.98;;
12958;SDS011;6544;51.666;6.634;2022-09-24T01:02:48;18.40;;;16.48;;
12958;SDS011;6544;51.666;6.634;2022-09-24T01:05:19;18.63;;;16.63;;
12958;SDS011;6544;51.666;6.634;2022-09-24T01:07:46;18.40;;;16.48;;
12958;SDS011;6544;51.666;6.634;2022-09-24T01:10:15;19.85;;;16.83;;
12958;SDS011;6544;51.666;6.634;2022-09-24T01:13:07;19.40;;;17.35;;
12958;SDS011;6544;51.666;6.634;2022-09-24T01:15:41;21.17;;;17.23;;
12958;SDS011;6544;51.666;6.634;2022-09-24T01:18:13;18.63;;;16.73;;
12958;SDS011;6544;51.666;6.634;2022-09-24T01:20:52;19.98;;;17.05;;
12958;SDS011;6544;51.666;6.634;2022-09-24T01:23:41;19.80;;;17.08;;
12958;SDS011;6544;51.666;6.634;2022-09-24T01:26:27;20.38;;;17.38;;
12958;SDS011;6544;51.666;6.634;2022-09-24T01:32:20;21.88;;;18.35;;
12958;SDS011;6544;51.666;6.634;2022-09-24T01:34:52;21.23;;;18.98;;
12958;SDS011;6544;51.666;6.634;2022-09-24T01:37:22;22.80;;;19.60;;
12958;SDS011;6544;51.666;6.634;2022-09-24T01:39:52;21.98;;;19.67;;
12958;SDS011;6544;51.666;6.634;2022-09-24T01:42:22;20.98;;;18.75;;
12958;SDS011;6544;51.666;6.634;2022-09-24T01:44:54;21.02;;;18.77;;
12958;SDS011;6544;51.666;6.634;2022-09-24T01:47:24;22.20;;;19.80;;
12958;SDS011;6544;51.666;6.634;2022-09-24T01:49:55;23.52;;;20.48;;
12958;SDS011;6544;51.666;6.634;2022-09-24T01:52:23;22.52;;;20.13;;
12958;SDS011;6544;51.666;6.634;2022-09-24T01:54:54;22.80;;;20.30;;
12958;SDS011;6544;51.666;6.634;2022-09-24T01:57:23;24.13;;;21.48;;
12958;SDS011;6544;51.666;6.634;2022-09-24T01:59:56;22.38;;;20.08;;
12958;SDS011;6544;51.666;6.634;2022-09-24T02:02:27;23.35;;;20.85;;
12958;SDS011;6544;51.666;6.634;2022-09-24T02:05:00;24.35;;;21.75;;
12958;SDS011;6544;51.666;6.634;2022-09-24T02:07:31;26.67;;;21.65;;
12958;SDS011;6544;51.666;6.634;2022-09-24T02:10:04;23.40;;;20.80;;
12958;SDS011;6544;51.666;6.634;2022-09-24T02:12:32;25.00;;;22.30;;
12958;SDS011;6544;51.666;6.634;2022-09-24T02:15:08;25.05;;;22.33;;
12958;SDS011;6544;51.666;6.634;2022-09-24T02:17:39;25.70;;;21.60;;
12958;SDS011;6544;51.666;6.634;2022-09-24T02:20:10;25.55;;;22.85;;
12958;SDS011;6544;51.666;6.634;2022-09-24T02:22:39;27.40;;;22.38;;
12958;SDS011;6544;51.666;6.634;2022-09-24T02:25:09;25.80;;;22.38;;
12958;SDS011;6544;51.666;6.634;2022-09-24T02:27:39;26.50;;;23.85;;
12958;SDS011;6544;51.666;6.634;2022-09-24T02:30:08;26.73;;;23.95;;
12958;SDS011;6544;51.666;6.634;2022-09-24T02:32:37;26.33;;;23.40;;
12958;SDS011;6544;51.666;6.634;2022-09-24T02:35:07;27.42;;;23.42;;
12958;SDS011;6544;51.666;6.634;2022-09-24T02:37:35;25.75;;;22.77;;
12958;SDS011;6544;51.666;6.634;2022-09-24T02:40:04;27.02;;;24.13;;
12958;SDS011;6544;51.666;6.634;2022-09-24T02:42:33;28.13;;;24.45;;
12958;SDS011;6544;51.666;6.634;2022-09-24T02:45:00;27.10;;;24.20;;
12958;SDS011;6544;51.666;6.634;2022-09-24T02:47:30;27.30;;;24.40;;
12958;SDS011;6544;51.666;6.634;2022-09-24T02:49:57;27.50;;;24.70;;
12958;SDS011;6544;51.666;6.634;2022-09-24T02:52:24;27.25;;;24.38;;
12958;SDS011;6544;51.666;6.634;2022-09-24T02:54:51;26.73;;;23.95;;
12958;SDS011;6544;51.666;6.634;2022-09-24T02:57:18;27.65;;;24.75;;
12958;SDS011;6544;51.666;6.634;2022-09-24T02:59:45;27.02;;;23.67;;
12958;SDS011;6544;51.666;6.634;2022-09-24T03:02:12;27.95;;;24.95;;
12958;SDS011;6544;51.666;6.634;2022-09-24T03:04:40;27.38;;;24.42;;
12958;SDS011;6544;51.666;6.634;2022-09-24T03:07:07;26.70;;;23.90;;
12958;SDS011;6544;51.666;6.634;2022-09-24T03:09:38;28.80;;;25.83;;
12958;SDS011;6544;51.666;6.634;2022-09-24T03:12:05;29.17;;;25.02;;
12958;SDS011;6544;51.666;6.634;2022-09-24T03:14:32;28.15;;;25.17;;
12958;SDS011;6544;51.666;6.634;2022-09-24T03:16:59;27.63;;;24.75;;
12958;SDS011;6544;51.666;6.634;2022-09-24T03:19:26;30.08;;;25.63;;
12958;SDS011;6544;51.666;6.634;2022-09-24T03:21:54;29.40;;;26.23;;
12958;SDS011;6544;51.666;6.634;2022-09-24T03:24:21;29.00;;;25.83;;
12958;SDS011;6544;51.666;6.634;2022-09-24T03:26:48;30.00;;;26.67;;
12958;SDS011;6544;51.666;6.634;2022-09-24T03:29:14;31.35;;;27.60;;
12958;SDS011;6544;51.666;6.634;2022-09-24T03:32:01;30.35;;;26.30;;
12958;SDS011;6544;51.666;6.634;2022-09-24T03:34:27;31.00;;;27.08;;
12958;SDS011;6544;51.666;6.634;2022-09-24T03:36:55;28.92;;;25.92;;
12958;SDS011;6544;51.666;6.634;2022-09-24T03:39:22;30.17;;;26.92;;
12958;SDS011;6544;51.666;6.634;2022-09-24T03:41:49;29.33;;;26.23;;
12958;SDS011;6544;51.666;6.634;2022-09-24T03:44:16;30.23;;;26.63;;
12958;SDS011;6544;51.666;6.634;2022-09-24T03:46:43;30.80;;;27.60;;
12958;SDS011;6544;51.666;6.634;2022-09-24T03:49:09;30.08;;;26.95;;
12958;SDS011;6544;51.666;6.634;2022-09-24T03:51:36;29.90;;;26.58;;
12958;SDS011;6544;51.666;6.634;2022-09-24T03:54:05;29.40;;;26.20;;
12958;SDS011;6544;51.666;6.634;2022-09-24T03:56:31;30.13;;;26.90;;
12958;SDS011;6544;51.666;6.634;2022-09-24T03:58:58;29.90;;;26.77;;
12958;SDS011;6544;51.666;6.634;2022-09-24T04:01:25;30.48;;;27.17;;
12958;SDS011;6544;51.666;6.634;2022-09-24T04:03:53;31.23;;;27.67;;
12958;SDS011;6544;51.666;6.634;2022-09-24T04:06:20;30.73;;;27.42;;
12958;SDS011;6544;51.666;6.634;2022-09-24T04:08:46;31.95;;;27.83;;
12958;SDS011;6544;51.666;6.634;2022-09-24T04:11:15;31.08;;;27.60;;
12958;SDS011;6544;51.666;6.634;2022-09-24T04:13:41;29.60;;;26.40;;
12958;SDS011;6544;51.666;6.634;2022-09-24T04:16:08;31.30;;;28.05;;
12958;SDS011;6544;51.666;6.634;2022-09-24T04:18:35;35.72;;;28.33;;
12958;SDS011;6544;51.666;6.634;2022-09-24T04:21:03;31.23;;;27.85;;
12958;SDS011;6544;51.666;6.634;2022-09-24T04:23:30;32.78;;;28.77;;
12958;SDS011;6544;51.666;6.634;2022-09-24T04:25:58;32.15;;;28.45;;
12958;SDS011;6544;51.666;6.634;2022-09-24T04:28:27;30.83;;;26.90;;
12958;SDS011;6544;51.666;6.634;2022-09-24T04:30:55;31.42;;;27.85;;
12958;SDS011;6544;51.666;6.634;2022-09-24T04:33:22;31.08;;;27.67;;
12958;SDS011;6544;51.666;6.634;2022-09-24T04:35:49;31.27;;;27.75;;
12958;SDS011;6544;51.666;6.634;2022-09-24T04:38:15;30.55;;;27.35;;
12958;SDS011;6544;51.666;6.634;2022-09-24T04:40:44;30.88;;;27.65;;
12958;SDS011;6544;51.666;6.634;2022-09-24T04:43:11;31.80;;;28.48;;
12958;SDS011;6544;51.666;6.634;2022-09-24T04:45:39;31.83;;;28.33;;
12958;SDS011;6544;51.666;6.634;2022-09-24T04:48:07;33.08;;;29.48;;
12958;SDS011;6544;51.666;6.634;2022-09-24T04:50:34;34.05;;;29.73;;
12958;SDS011;6544;51.666;6.634;2022-09-24T04:53:01;32.85;;;28.38;;
12958;SDS011;6544;51.666;6.634;2022-09-24T04:55:28;31.58;;;28.20;;
12958;SDS011;6544;51.666;6.634;2022-09-24T04:57:56;31.23;;;27.88;;
12958;SDS011;6544;51.666;6.634;2022-09-24T05:00:23;31.98;;;28.48;;
12958;SDS011;6544;51.666;6.634;2022-09-24T05:02:55;31.92;;;28.45;;
12958;SDS011;6544;51.666;6.634;2022-09-24T05:05:23;33.20;;;29.02;;
12958;SDS011;6544;51.666;6.634;2022-09-24T05:07:51;34.53;;;29.52;;
12958;SDS011;6544;51.666;6.634;2022-09-24T05:10:20;32.97;;;28.52;;
12958;SDS011;6544;51.666;6.634;2022-09-24T05:12:48;31.88;;;27.90;;
12958;SDS011;6544;51.666;6.634;2022-09-24T05:15:15;30.52;;;27.15;;
12958;SDS011;6544;51.666;6.634;2022-09-24T05:17:43;31.98;;;27.63;;
12958;SDS011;6544;51.666;6.634;2022-09-24T05:20:12;32.38;;;26.77;;
12958;SDS011;6544;51.666;6.634;2022-09-24T05:22:41;32.10;;;27.13;;
12958;SDS011;6544;51.666;6.634;2022-09-24T05:25:08;31.60;;;27.20;;
12958;SDS011;6544;51.666;6.634;2022-09-24T05:27:36;32.00;;;28.17;;
12958;SDS011;6544;51.666;6.634;2022-09-24T05:30:02;30.98;;;27.67;;
12958;SDS011;6544;51.666;6.634;2022-09-24T05:32:30;31.75;;;28.38;;
12958;SDS011;6544;51.666;6.634;2022-09-24T05:35:00;31.10;;;27.60;;
12958;SDS011;6544;51.666;6.634;2022-09-24T05:37:28;32.90;;;27.33;;
12958;SDS011;6544;51.666;6.634;2022-09-24T05:39:55;31.38;;;26.27;;
12958;SDS011;6544;51.666;6.634;2022-09-24T05:42:42;29.95;;;23.13;;
12958;SDS011;6544;51.666;6.634;2022-09-24T05:45:10;31.73;;;26.50;;
12958;SDS011;6544;51.666;6.634;2022-09-24T05:47:41;29.75;;;26.27;;
12958;SDS011;6544;51.666;6.634;2022-09-24T05:50:08;27.80;;;23.50;;
12958;SDS011;6544;51.666;6.634;2022-09-24T05:52:37;30.50;;;26.45;;
12958;SDS011;6544;51.666;6.634;2022-09-24T05:55:04;32.05;;;25.75;;
12958;SDS011;6544;51.666;6.634;2022-09-24T05:57:32;31.20;;;25.58;;
12958;SDS011;6544;51.666;6.634;2022-09-24T05:59:59;30.42;;;25.90;;
12958;SDS011;6544;51.666;6.634;2022-09-24T06:02:26;30.73;;;26.00;;
12958;SDS011;6544;51.666;6.634;2022-09-24T06:04:53;32.17;;;24.67;;
12958;SDS011;6544;51.666;6.634;2022-09-24T06:07:20;30.17;;;24.63;;
12958;SDS011;6544;51.666;6.634;2022-09-24T06:09:48;29.70;;;25.25;;
12958;SDS011;6544;51.666;6.634;2022-09-24T06:12:16;29.17;;;25.40;;
12958;SDS011;6544;51.666;6.634;2022-09-24T06:14:42;27.70;;;24.70;;
12958;SDS011;6544;51.666;6.634;2022-09-24T06:17:09;30.13;;;23.90;;
12958;SDS011;6544;51.666;6.634;2022-09-24T06:19:36;29.25;;;23.15;;
12958;SDS011;6544;51.666;6.634;2022-09-24T06:22:03;26.48;;;23.05;;
12958;SDS011;6544;51.666;6.634;2022-09-24T06:24:30;26.90;;;22.73;;
12958;SDS011;6544;51.666;6.634;2022-09-24T06:26:58;28.00;;;23.58;;
12958;SDS011;6544;51.666;6.634;2022-09-24T06:29:25;28.17;;;23.42;;
12958;SDS011;6544;51.666;6.634;2022-09-24T06:31:52;26.85;;;22.77;;
12958;SDS011;6544;51.666;6.634;2022-09-24T06:34:19;28.15;;;23.23;;
12958;SDS011;6544;51.666;6.634;2022-09-24T06:36:46;26.25;;;22.15;;
12958;SDS011;6544;51.666;6.634;2022-09-24T06:39:13;27.70;;;23.02;;
12958;SDS011;6544;51.666;6.634;2022-09-24T06:41:39;26.50;;;22.48;;
12958;SDS011;6544;51.666;6.634;2022-09-24T06:44:08;27.45;;;22.70;;
12958;SDS011;6544;51.666;6.634;2022-09-24T06:46:34;26.77;;;23.88;;
12958;SDS011;6544;51.666;6.634;2022-09-24T06:49:01;26.88;;;23.98;;
12958;SDS011;6544;51.666;6.634;2022-09-24T06:51:28;26.90;;;23.27;;
12958;SDS011;6544;51.666;6.634;2022-09-24T06:53:55;28.35;;;22.70;;
12958;SDS011;6544;51.666;6.634;2022-09-24T06:56:22;27.27;;;22.23;;
12958;SDS011;6544;51.666;6.634;2022-09-24T06:58:49;29.52;;;22.63;;
12958;SDS011;6544;51.666;6.634;2022-09-24T07:01:17;27.67;;;22.88;;
12958;SDS011;6544;51.666;6.634;2022-09-24T07:03:44;27.20;;;22.13;;
12958;SDS011;6544;51.666;6.634;2022-09-24T07:06:11;26.63;;;22.10;;
12958;SDS011;6544;51.666;6.634;2022-09-24T07:08:38;27.75;;;21.95;;
12958;SDS011;6544;51.666;6.634;2022-09-24T07:11:05;25.63;;;21.73;;
12958;SDS011;6544;51.666;6.634;2022-09-24T07:13:33;25.00;;;18.52;;
12958;SDS011;6544;51.666;6.634;2022-09-24T07:16:00;27.23;;;21.38;;
12958;SDS011;6544;51.666;6.634;2022-09-24T07:18:28;26.75;;;20.63;;
12958;SDS011;6544;51.666;6.634;2022-09-24T07:20:55;27.42;;;22.05;;
12958;SDS011;6544;51.666;6.634;2022-09-24T07:23:22;25.92;;;21.65;;
12958;SDS011;6544;51.666;6.634;2022-09-24T07:25:49;25.70;;;21.38;;
12958;SDS011;6544;51.666;6.634;2022-09-24T07:28:21;24.95;;;20.63;;
12958;SDS011;6544;51.666;6.634;2022-09-24T07:30:54;22.60;;;18.52;;
12958;SDS011;6544;51.666;6.634;2022-09-24T07:33:22;26.95;;;20.10;;
12958;SDS011;6544;51.666;6.634;2022-09-24T07:35:50;25.73;;;21.45;;
12958;SDS011;6544;51.666;6.634;2022-09-24T07:38:17;25.58;;;21.27;;
12958;SDS011;6544;51.666;6.634;2022-09-24T07:40:44;24.55;;;19.20;;
12958;SDS011;6544;51.666;6.634;2022-09-24T07:43:11;26.60;;;20.60;;
12958;SDS011;6544;51.666;6.634;2022-09-24T07:45:39;23.33;;;18.38;;
12958;SDS011;6544;51.666;6.634;2022-09-24T07:48:05;26.77;;;20.63;;
12958;SDS011;6544;51.666;6.634;2022-09-24T07:50:33;32.35;;;22.23;;
12958;SDS011;6544;51.666;6.634;2022-09-24T07:53:05;26.60;;;23.33;;
12958;SDS011;6544;51.666;6.634;2022-09-24T07:55:32;28.80;;;22.08;;
12958;SDS011;6544;51.666;6.634;2022-09-24T07:58:03;29.73;;;23.27;;
12958;SDS011;6544;51.666;6.634;2022-09-24T08:00:30;28.23;;;24.20;;
12958;SDS011;6544;51.666;6.634;2022-09-24T08:02:57;25.25;;;18.63;;
12958;SDS011;6544;51.666;6.634;2022-09-24T08:05:24;26.60;;;21.08;;
12958;SDS011;6544;51.666;6.634;2022-09-24T08:07:51;22.80;;;19.83;;
12958;SDS011;6544;51.666;6.634;2022-09-24T08:10:19;22.48;;;18.42;;
12958;SDS011;6544;51.666;6.634;2022-09-24T08:12:47;26.67;;;19.83;;
12958;SDS011;6544;51.666;6.634;2022-09-24T08:15:14;28.15;;;21.75;;
12958;SDS011;6544;51.666;6.634;2022-09-24T08:17:41;27.17;;;18.02;;
12958;SDS011;6544;51.666;6.634;2022-09-24T08:20:08;21.85;;;17.63;;
12958;SDS011;6544;51.666;6.634;2022-09-24T08:22:36;24.77;;;18.50;;
12958;SDS011;6544;51.666;6.634;2022-09-24T08:25:03;24.10;;;16.42;;
12958;SDS011;6544;51.666;6.634;2022-09-24T08:27:32;20.77;;;17.88;;
12958;SDS011;6544;51.666;6.634;2022-09-24T08:30:01;24.80;;;20.63;;
12958;SDS011;6544;51.666;6.634;2022-09-24T08:32:29;27.20;;;21.38;;
12958;SDS011;6544;51.666;6.634;2022-09-24T08:34:55;25.02;;;20.65;;
12958;SDS011;6544;51.666;6.634;2022-09-24T08:37:23;21.98;;;18.70;;
12958;SDS011;6544;51.666;6.634;2022-09-24T08:39:50;23.75;;;18.27;;
12958;SDS011;6544;51.666;6.634;2022-09-24T08:42:22;20.50;;;16.50;;
12958;SDS011;6544;51.666;6.634;2022-09-24T08:44:59;16.58;;;14.77;;
12958;SDS011;6544;51.666;6.634;2022-09-24T08:47:41;16.48;;;13.98;;
12958;SDS011;6544;51.666;6.634;2022-09-24T08:50:13;19.15;;;14.10;;
12958;SDS011;6544;51.666;6.634;2022-09-24T08:52:53;16.77;;;13.93;;
12958;SDS011;6544;51.666;6.634;2022-09-24T08:55:26;18.27;;;13.50;;
12958;SDS011;6544;51.666;6.634;2022-09-24T08:58:00;15.70;;;12.52;;
12958;SDS011;6544;51.666;6.634;2022-09-24T09:00:49;13.52;;;12.13;;
12958;SDS011;6544;51.666;6.634;2022-09-24T09:03:22;14.38;;;11.48;;
12958;SDS011;6544;51.666;6.634;2022-09-24T09:05:58;14.25;;;12.23;;
12958;SDS011;6544;51.666;6.634;2022-09-24T09:08:32;13.68;;;12.07;;
12958;SDS011;6544;51.666;6.634;2022-09-24T09:11:03;13.48;;;10.55;;
12958;SDS011;6544;51.666;6.634;2022-09-24T09:13:35;14.52;;;12.55;;
12958;SDS011;6544;51.666;6.634;2022-09-24T09:16:11;15.90;;;13.35;;
12958;SDS011;6544;51.666;6.634;2022-09-24T09:18:46;15.57;;;13.07;;
12958;SDS011;6544;51.666;6.634;2022-09-24T09:21:17;18.75;;;12.93;;
12958;SDS011;6544;51.666;6.634;2022-09-24T09:23:50;14.80;;;11.73;;
12958;SDS011;6544;51.666;6.634;2022-09-24T09:26:19;13.38;;;11.80;;
12958;SDS011;6544;51.666;6.634;2022-09-24T09:28:46;14.55;;;11.95;;
12958;SDS011;6544;51.666;6.634;2022-09-24T09:31:22;11.18;;;9.45;;
12958;SDS011;6544;51.666;6.634;2022-09-24T09:34:01;12.40;;;10.38;;
12958;SDS011;6544;51.666;6.634;2022-09-24T09:36:40;11.93;;;10.52;;
12958;SDS011;6544;51.666;6.634;2022-09-24T09:39:22;15.05;;;10.70;;
12958;SDS011;6544;51.666;6.634;2022-09-24T09:41:59;12.93;;;11.18;;
12958;SDS011;6544;51.666;6.634;2022-09-24T09:44:36;13.68;;;9.15;;
12958;SDS011;6544;51.666;6.634;2022-09-24T09:47:10;12.20;;;10.93;;
12958;SDS011;6544;51.666;6.634;2022-09-24T09:49:44;12.93;;;9.82;;
12958;SDS011;6544;51.666;6.634;2022-09-24T09:52:14;10.38;;;9.25;;
12958;SDS011;6544;51.666;6.634;2022-09-24T09:54:45;15.45;;;11.07;;
12958;SDS011;6544;51.666;6.634;2022-09-24T09:57:13;12.63;;;10.48;;
12958;SDS011;6544;51.666;6.634;2022-09-24T09:59:44;13.30;;;11.88;;
12958;SDS011;6544;51.666;6.634;2022-09-24T10:02:18;14.80;;;11.57;;
12958;SDS011;6544;51.666;6.634;2022-09-24T10:04:51;13.45;;;12.15;;
12958;SDS011;6544;51.666;6.634;2022-09-24T10:07:20;11.38;;;9.43;;
12958;SDS011;6544;51.666;6.634;2022-09-24T10:09:56;11.23;;;9.85;;
12958;SDS011;6544;51.666;6.634;2022-09-24T10:12:28;13.00;;;10.13;;
12958;SDS011;6544;51.666;6.634;2022-09-24T10:14:59;10.32;;;9.07;;
12958;SDS011;6544;51.666;6.634;2022-09-24T10:17:31;12.75;;;10.43;;
12958;SDS011;6544;51.666;6.634;2022-09-24T10:20:05;12.13;;;10.02;;
12958;SDS011;6544;51.666;6.634;2022-09-24T10:22:33;10.93;;;9.23;;
12958;SDS011;6544;51.666;6.634;2022-09-24T10:25:02;11.75;;;9.35;;
12958;SDS011;6544;51.666;6.634;2022-09-24T10:27:31;9.70;;;8.23;;
12958;SDS011;6544;51.666;6.634;2022-09-24T10:30:01;10.07;;;9.07;;
12958;SDS011;6544;51.666;6.634;2022-09-24T10:32:56;11.77;;;9.85;;
12958;SDS011;6544;51.666;6.634;2022-09-24T10:35:25;10.65;;;9.55;;
12958;SDS011;6544;51.666;6.634;2022-09-24T10:37:54;12.00;;;8.80;;
12958;SDS011;6544;51.666;6.634;2022-09-24T10:40:22;11.07;;;8.68;;
12958;SDS011;6544;51.666;6.634;2022-09-24T10:42:55;10.85;;;9.27;;
12958;SDS011;6544;51.666;6.634;2022-09-24T10:48:32;11.45;;;10.05;;
12958;SDS011;6544;51.666;6.634;2022-09-24T10:51:05;12.35;;;10.25;;
12958;SDS011;6544;51.666;6.634;2022-09-24T10:53:40;10.60;;;9.43;;
12958;SDS011;6544;51.666;6.634;2022-09-24T10:56:19;11.32;;;9.93;;
12958;SDS011;6544;51.666;6.634;2022-09-24T10:59:06;10.50;;;9.40;;
12958;SDS011;6544;51.666;6.634;2022-09-24T11:02:06;14.13;;;10.85;;
12958;SDS011;6544;51.666;6.634;2022-09-24T11:04:50;11.10;;;9.90;;
12958;SDS011;6544;51.666;6.634;2022-09-24T11:07:34;11.60;;;10.27;;
12958;SDS011;6544;51.666;6.634;2022-09-24T11:10:17;13.05;;;10.50;;
12958;SDS011;6544;51.666;6.634;2022-09-24T11:12:53;11.30;;;10.10;;
12958;SDS011;6544;51.666;6.634;2022-09-24T11:15:31;12.10;;;9.63;;
12958;SDS011;6544;51.666;6.634;2022-09-24T11:18:15;12.40;;;10.13;;
12958;SDS011;6544;51.666;6.634;2022-09-24T11:20:55;10.93;;;9.65;;
12958;SDS011;6544;51.666;6.634;2022-09-24T11:23:34;12.57;;;9.60;;
12958;SDS011;6544;51.666;6.634;2022-09-24T11:26:17;11.80;;;9.48;;
12958;SDS011;6544;51.666;6.634;2022-09-24T11:31:55;12.90;;;11.60;;
12958;SDS011;6544;51.666;6.634;2022-09-24T11:34:35;9.95;;;8.95;;
12958;SDS011;6544;51.666;6.634;2022-09-24T11:37:15;11.63;;;9.60;;
12958;SDS011;6544;51.666;6.634;2022-09-24T11:39:55;11.65;;;10.05;;
12958;SDS011;6544;51.666;6.634;2022-09-24T11:42:35;11.20;;;9.30;;
12958;SDS011;6544;51.666;6.634;2022-09-24T11:45:24;11.32;;;8.93;;
12958;SDS011;6544;51.666;6.634;2022-09-24T11:48:03;9.98;;;8.65;;
12958;SDS011;6544;51.666;6.634;2022-09-24T11:50:46;12.15;;;10.90;;
12958;SDS011;6544;51.666;6.634;2022-09-24T11:53:23;12.60;;;10.20;;
12958;SDS011;6544;51.666;6.634;2022-09-24T11:55:57;10.13;;;9.13;;
12958;SDS011;6544;51.666;6.634;2022-09-24T11:58:27;11.10;;;9.52;;
12958;SDS011;6544;51.666;6.634;2022-09-24T12:00:58;9.80;;;8.38;;
12958;SDS011;6544;51.666;6.634;2022-09-24T12:03:33;10.23;;;9.00;;
12958;SDS011;6544;51.666;6.634;2022-09-24T12:06:04;11.75;;;10.55;;
12958;SDS011;6544;51.666;6.634;2022-09-24T12:08:37;13.07;;;9.90;;
12958;SDS011;6544;51.666;6.634;2022-09-24T12:11:10;11.95;;;10.27;;
12958;SDS011;6544;51.666;6.634;2022-09-24T12:13:43;10.20;;;8.60;;
12958;SDS011;6544;51.666;6.634;2022-09-24T12:16:14;12.13;;;9.68;;
12958;SDS011;6544;51.666;6.634;2022-09-24T12:18:44;10.15;;;8.32;;
12958;SDS011;6544;51.666;6.634;2022-09-24T12:21:17;10.85;;;9.45;;
12958;SDS011;6544;51.666;6.634;2022-09-24T12:23:48;11.50;;;10.30;;
12958;SDS011;6544;51.666;6.634;2022-09-24T12:26:16;11.63;;;10.30;;
12958;SDS011;6544;51.666;6.634;2022-09-24T12:28:51;10.95;;;8.82;;
12958;SDS011;6544;51.666;6.634;2022-09-24T12:31:41;9.13;;;8.18;;
12958;SDS011;6544;51.666;6.634;2022-09-24T12:34:33;12.48;;;9.25;;
12958;SDS011;6544;51.666;6.634;2022-09-24T12:37:10;9.35;;;8.35;;
12958;SDS011;6544;51.666;6.634;2022-09-24T12:39:43;10.35;;;8.88;;
12958;SDS011;6544;51.666;6.634;2022-09-24T12:42:13;12.85;;;9.25;;
12958;SDS011;6544;51.666;6.634;2022-09-24T12:44:43;11.95;;;8.50;;
12958;SDS011;6544;51.666;6.634;2022-09-24T12:47:15;12.30;;;9.60;;
12958;SDS011;6544;51.666;6.634;2022-09-24T12:49:47;12.27;;;8.82;;
12958;SDS011;6544;51.666;6.634;2022-09-24T12:52:21;9.32;;;8.32;;
12958;SDS011;6544;51.666;6.634;2022-09-24T12:54:54;11.45;;;9.65;;
12958;SDS011;6544;51.666;6.634;2022-09-24T12:57:24;10.75;;;9.63;;
12958;SDS011;6544;51.666;6.634;2022-09-24T12:59:54;10.68;;;8.80;;
12958;SDS011;6544;51.666;6.634;2022-09-24T13:02:23;10.50;;;9.40;;
12958;SDS011;6544;51.666;6.634;2022-09-24T13:05:03;11.00;;;9.48;;
12958;SDS011;6544;51.666;6.634;2022-09-24T13:07:41;10.48;;;8.85;;
12958;SDS011;6544;51.666;6.634;2022-09-24T13:10:24;11.82;;;9.52;;
12958;SDS011;6544;51.666;6.634;2022-09-24T13:12:54;9.10;;;8.07;;
12958;SDS011;6544;51.666;6.634;2022-09-24T13:15:26;12.05;;;8.70;;
12958;SDS011;6544;51.666;6.634;2022-09-24T13:18:01;10.00;;;8.75;;
12958;SDS011;6544;51.666;6.634;2022-09-24T13:20:31;9.85;;;8.18;;
12958;SDS011;6544;51.666;6.634;2022-09-24T13:23:10;10.43;;;9.38;;
12958;SDS011;6544;51.666;6.634;2022-09-24T13:25:42;9.43;;;8.40;;
12958;SDS011;6544;51.666;6.634;2022-09-24T13:28:21;10.40;;;9.35;;
12958;SDS011;6544;51.666;6.634;2022-09-24T13:30:50;10.95;;;9.82;;
12958;SDS011;6544;51.666;6.634;2022-09-24T13:33:24;12.45;;;9.95;;
12958;SDS011;6544;51.666;6.634;2022-09-24T13:36:03;10.50;;;9.05;;
12958;SDS011;6544;51.666;6.634;2022-09-24T13:38:37;10.65;;;9.20;;
12958;SDS011;6544;51.666;6.634;2022-09-24T13:41:14;12.85;;;9.93;;
12958;SDS011;6544;51.666;6.634;2022-09-24T13:43:49;9.77;;;8.38;;
12958;SDS011;6544;51.666;6.634;2022-09-24T13:46:19;11.57;;;10.02;;
12958;SDS011;6544;51.666;6.634;2022-09-24T13:48:48;10.07;;;9.00;;
12958;SDS011;6544;51.666;6.634;2022-09-24T13:51:17;10.18;;;9.00;;
12958;SDS011;6544;51.666;6.634;2022-09-24T13:53:51;12.95;;;10.10;;
12958;SDS011;6544;51.666;6.634;2022-09-24T13:56:22;11.82;;;10.05;;
12958;SDS011;6544;51.666;6.634;2022-09-24T13:58:50;14.70;;;10.38;;
12958;SDS011;6544;51.666;6.634;2022-09-24T14:01:28;11.25;;;9.77;;
12958;SDS011;6544;51.666;6.634;2022-09-24T14:04:03;11.23;;;10.02;;
12958;SDS011;6544;51.666;6.634;2022-09-24T14:06:33;13.35;;;10.10;;
12958;SDS011;6544;51.666;6.634;2022-09-24T14:09:13;13.75;;;11.43;;
12958;SDS011;6544;51.666;6.634;2022-09-24T14:11:48;14.75;;;13.25;;
12958;SDS011;6544;51.666;6.634;2022-09-24T14:14:17;12.77;;;11.35;;
12958;SDS011;6544;51.666;6.634;2022-09-24T14:16:46;14.32;;;12.20;;
12958;SDS011;6544;51.666;6.634;2022-09-24T14:19:13;14.52;;;12.95;;
12958;SDS011;6544;51.666;6.634;2022-09-24T14:21:41;15.02;;;13.27;;
12958;SDS011;6544;51.666;6.634;2022-09-24T14:24:13;14.48;;;12.13;;
12958;SDS011;6544;51.666;6.634;2022-09-24T14:26:45;14.90;;;13.43;;
12958;SDS011;6544;51.666;6.634;2022-09-24T14:29:18;14.52;;;13.13;;
12958;SDS011;6544;51.666;6.634;2022-09-24T14:31:47;15.93;;;14.20;;
12958;SDS011;6544;51.666;6.634;2022-09-24T14:34:24;14.40;;;12.90;;
12958;SDS011;6544;51.666;6.634;2022-09-24T14:36:54;14.88;;;13.35;;
12958;SDS011;6544;51.666;6.634;2022-09-24T14:39:26;15.73;;;13.68;;
12958;SDS011;6544;51.666;6.634;2022-09-24T14:41:56;14.85;;;13.27;;
12958;SDS011;6544;51.666;6.634;2022-09-24T14:44:24;14.45;;;12.20;;
12958;SDS011;6544;51.666;6.634;2022-09-24T14:46:53;16.05;;;13.98;;
12958;SDS011;6544;51.666;6.634;2022-09-24T14:49:23;14.23;;;11.65;;
12958;SDS011;6544;51.666;6.634;2022-09-24T14:51:53;14.82;;;13.00;;
12958;SDS011;6544;51.666;6.634;2022-09-24T14:54:26;16.20;;;12.93;;
12958;SDS011;6544;51.666;6.634;2022-09-24T14:57:06;14.68;;;13.18;;
12958;SDS011;6544;51.666;6.634;2022-09-24T14:59:35;14.00;;;12.50;;
12958;SDS011;6544;51.666;6.634;2022-09-24T15:02:05;12.82;;;11.43;;
12958;SDS011;6544;51.666;6.634;2022-09-24T15:04:43;15.02;;;12.60;;
12958;SDS011;6544;51.666;6.634;2022-09-24T15:07:14;14.27;;;12.48;;
12958;SDS011;6544;51.666;6.634;2022-09-24T15:09:42;15.13;;;11.07;;